createdAt,value
2018-07-28T00:00:38.579Z,51.03
2018-07-28T00:03:31.187Z,48.66
2018-07-28T00:06:23.684Z,48.98
2018-07-28T00:09:16.227Z,50.24
2018-07-28T00:12:08.682Z,49.24
2018-07-28T00:15:04.163Z,49.07
2018-07-28T00:17:56.722Z,50.22
2018-07-28T00:20:49.174Z,50.53
2018-07-28T00:23:41.715Z,50.56
2018-07-28T00:26:34.207Z,50.58
2018-07-28T00:29:26.854Z,50.72
2018-07-28T00:32:20.111Z,50.58
2018-07-28T00:35:12.706Z,50.79
2018-07-28T00:38:05.264Z,49.96
2018-07-28T00:40:57.706Z,48.27
2018-07-28T00:43:50.282Z,49.91
2018-07-28T00:46:42.870Z,50.58
2018-07-28T00:49:35.403Z,50.58
2018-07-28T00:52:27.865Z,50.61
2018-07-28T00:55:20.354Z,50.14
2018-07-28T00:58:12.946Z,50.45
2018-07-28T01:01:05.560Z,50.02
2018-07-28T01:03:58.055Z,50.25
2018-07-28T01:06:50.594Z,50.26
2018-07-28T01:09:43.103Z,50.50
2018-07-28T01:12:35.786Z,50.74
2018-07-28T01:15:28.334Z,50.33
2018-07-28T01:18:20.782Z,50.30
2018-07-28T01:21:13.244Z,50.19
2018-07-28T01:24:05.946Z,50.78
2018-07-28T01:26:58.517Z,50.66
2018-07-28T01:29:51.001Z,50.14
2018-07-28T01:32:43.584Z,49.89
2018-07-28T01:35:36.153Z,50.47
2018-07-28T01:38:28.754Z,50.82
2018-07-28T01:41:21.218Z,50.82
2018-07-28T01:44:13.789Z,50.96
2018-07-28T01:47:06.271Z,50.85
2018-07-28T01:49:58.734Z,51.09
2018-07-28T01:52:51.564Z,51.04
2018-07-28T01:55:44.177Z,51.48
2018-07-28T01:58:36.620Z,51.68
2018-07-28T02:01:29.438Z,51.04
2018-07-28T02:04:22.231Z,50.26
2018-07-28T02:07:14.789Z,50.24
2018-07-28T02:10:08.170Z,50.03
2018-07-28T02:13:00.719Z,50.11
2018-07-28T02:15:53.488Z,50.18
2018-07-28T02:18:46.213Z,50.46
2018-07-28T02:21:39.088Z,50.10
2018-07-28T02:24:31.606Z,49.97
2018-07-28T02:27:24.316Z,50.19
2018-07-28T02:30:17.060Z,50.17
2018-07-28T02:33:10.193Z,50.66
2018-07-28T02:36:03.087Z,50.11
2018-07-28T02:38:55.947Z,49.94
2018-07-28T02:41:49.150Z,50.41
2018-07-28T02:44:41.740Z,50.34
2018-07-28T02:47:34.261Z,50.24
2018-07-28T02:50:26.808Z,50.06
2018-07-28T02:53:20.526Z,49.87
2018-07-28T02:56:14.548Z,49.97
2018-07-28T02:59:07.385Z,49.91
2018-07-28T03:02:00.082Z,49.50
2018-07-28T03:04:52.714Z,49.43
2018-07-28T03:07:45.316Z,50.16
2018-07-28T03:10:37.865Z,49.10
2018-07-28T03:13:30.500Z,48.57
2018-07-28T03:16:23.024Z,48.67
2018-07-28T03:19:15.575Z,49.54
2018-07-28T03:22:08.047Z,49.45
2018-07-28T03:25:00.747Z,48.73
2018-07-28T03:27:53.730Z,48.19
2018-07-28T03:30:46.342Z,48.62
2018-07-28T03:33:38.952Z,48.12
2018-07-28T03:36:32.394Z,48.71
2018-07-28T03:39:24.996Z,48.54
2018-07-28T03:42:17.528Z,48.96
2018-07-28T03:45:10.594Z,48.21
2018-07-28T03:48:03.113Z,47.66
2018-07-28T03:50:55.724Z,47.66
2018-07-28T03:53:48.199Z,47.74
2018-07-28T03:56:40.851Z,47.84
2018-07-28T03:59:33.332Z,47.95
2018-07-28T04:02:25.952Z,47.83
2018-07-28T04:05:18.771Z,47.71
2018-07-28T04:08:11.262Z,47.44
2018-07-28T04:11:03.758Z,47.57
2018-07-28T04:13:56.244Z,48.20
2018-07-28T04:16:48.721Z,48.02
2018-07-28T04:19:41.251Z,48.51
2018-07-28T04:22:33.715Z,48.05
2018-07-28T04:25:26.215Z,48.21
2018-07-28T04:28:18.739Z,48.50
2018-07-28T04:31:11.303Z,48.18
2018-07-28T04:34:03.782Z,48.82
2018-07-28T04:36:56.423Z,49.41
2018-07-28T04:39:49.079Z,48.65
2018-07-28T04:42:42.646Z,48.40
2018-07-28T04:45:35.170Z,48.15
2018-07-28T04:48:27.727Z,48.35
2018-07-28T04:51:20.246Z,48.20
2018-07-28T04:54:12.736Z,48.06
2018-07-28T04:57:05.252Z,48.28
2018-07-28T04:59:57.910Z,48.18
2018-07-28T05:02:50.454Z,48.80
2018-07-28T05:05:43.228Z,48.24
2018-07-28T05:08:36.509Z,48.54
2018-07-28T05:11:29.103Z,48.45
2018-07-28T05:14:21.619Z,48.61
2018-07-28T05:17:14.261Z,48.50
2018-07-28T05:20:06.873Z,49.06
2018-07-28T05:22:59.415Z,49.10
2018-07-28T05:25:51.998Z,48.84
2018-07-28T05:28:44.589Z,49.25
2018-07-28T05:31:37.111Z,48.64
2018-07-28T05:34:30.242Z,48.42
2018-07-28T05:37:22.774Z,48.89
2018-07-28T05:40:15.307Z,48.98
2018-07-28T05:43:08.088Z,49.28
2018-07-28T05:46:00.660Z,49.34
2018-07-28T05:48:53.362Z,48.89
2018-07-28T05:51:45.875Z,49.20
2018-07-28T05:54:39.077Z,49.65
2018-07-28T05:57:31.674Z,49.58
2018-07-28T06:00:24.143Z,48.84
2018-07-28T06:03:16.678Z,49.08
2018-07-28T06:06:09.315Z,48.79
2018-07-28T06:09:01.797Z,48.76
2018-07-28T06:11:54.262Z,49.16
2018-07-28T06:14:46.935Z,49.37
2018-07-28T06:17:39.549Z,48.79
2018-07-28T06:20:32.120Z,48.70
2018-07-28T06:23:25.275Z,49.04
2018-07-28T06:26:17.840Z,49.15
2018-07-28T06:29:10.329Z,49.09
2018-07-28T06:32:03.410Z,49.11
2018-07-28T06:34:56.158Z,49.67
2018-07-28T06:37:48.811Z,49.47
2018-07-28T06:40:41.377Z,49.42
2018-07-28T06:43:34.035Z,49.44
2018-07-28T06:46:26.630Z,49.69
2018-07-28T06:49:19.149Z,49.54
2018-07-28T06:52:11.744Z,49.76
2018-07-28T06:55:06.843Z,49.54
2018-07-28T06:58:02.162Z,50.41
2018-07-28T07:00:54.874Z,49.89
2018-07-28T07:03:48.743Z,51.57
2018-07-28T07:06:41.666Z,51.73
2018-07-28T07:09:34.425Z,52.30
2018-07-28T07:12:26.998Z,52.26
2018-07-28T07:15:19.691Z,52.10
2018-07-28T07:18:12.279Z,52.58
2018-07-28T07:21:04.824Z,52.26
2018-07-28T07:23:57.472Z,52.04
2018-07-28T07:26:50.218Z,51.71
2018-07-28T07:29:42.830Z,52.18
2018-07-28T07:32:35.478Z,51.45
2018-07-28T07:35:27.983Z,51.90
2018-07-28T07:38:20.544Z,51.77
2018-07-28T07:41:13.163Z,52.15
2018-07-28T07:44:05.803Z,52.48
2018-07-28T07:46:58.392Z,52.54
2018-07-28T07:49:50.954Z,52.79
2018-07-28T07:52:43.517Z,52.21
2018-07-28T07:55:36.223Z,52.95
2018-07-28T07:58:29.364Z,52.94
2018-07-28T08:01:22.110Z,51.89
2018-07-28T08:04:15.131Z,51.63
2018-07-28T08:07:07.673Z,52.26
2018-07-28T08:10:00.200Z,51.75
2018-07-28T08:12:52.629Z,52.17
2018-07-28T08:15:45.140Z,51.66
2018-07-28T08:18:37.981Z,51.08
2018-07-28T08:21:31.405Z,50.93
2018-07-28T08:24:24.054Z,50.35
2018-07-28T08:27:17.323Z,50.40
2018-07-28T08:30:10.084Z,50.05
2018-07-28T08:33:03.268Z,50.08
2018-07-28T08:35:56.225Z,49.51
2018-07-28T08:38:49.015Z,49.53
2018-07-28T08:41:43.732Z,49.41
2018-07-28T08:44:36.435Z,49.28
2018-07-28T08:47:29.042Z,49.06
2018-07-28T08:50:21.602Z,48.66
2018-07-28T08:53:14.299Z,48.43
2018-07-28T08:56:06.807Z,48.65
2018-07-28T08:58:59.420Z,48.84
2018-07-28T09:01:52.139Z,48.87
2018-07-28T09:04:44.894Z,48.91
2018-07-28T09:07:37.569Z,48.68
2018-07-28T09:10:31.008Z,48.77
2018-07-28T09:13:23.480Z,48.69
2018-07-28T09:16:15.969Z,48.45
2018-07-28T09:19:08.531Z,48.64
2018-07-28T09:22:01.202Z,48.45
2018-07-28T09:24:53.645Z,48.83
2018-07-28T09:27:46.147Z,48.10
2018-07-28T09:30:38.555Z,48.63
2018-07-28T09:33:31.041Z,48.31
2018-07-28T09:36:23.584Z,48.45
2018-07-28T09:39:16.124Z,48.58
2018-07-28T09:42:08.626Z,48.68
2018-07-28T09:45:06.207Z,48.81
2018-07-28T09:47:58.743Z,48.99
2018-07-28T09:50:51.322Z,48.87
2018-07-28T09:53:43.854Z,49.23
2018-07-28T09:56:36.350Z,48.95
2018-07-28T09:59:28.929Z,48.80
2018-07-28T10:02:21.494Z,49.64
2018-07-28T10:05:14.082Z,48.83
2018-07-28T10:08:06.593Z,48.82
2018-07-28T10:10:59.176Z,48.49
2018-07-28T10:13:51.790Z,48.62
2018-07-28T10:16:44.339Z,48.96
2018-07-28T10:19:36.822Z,49.04
2018-07-28T10:22:29.347Z,49.31
2018-07-28T10:25:21.848Z,49.02
2018-07-28T10:28:15.067Z,49.02
2018-07-28T10:31:07.662Z,49.52
2018-07-28T10:34:00.172Z,49.43
2018-07-28T10:36:52.722Z,49.48
2018-07-28T10:39:45.214Z,50.61
2018-07-28T10:42:38.017Z,50.47
2018-07-28T10:45:30.683Z,50.60
2018-07-28T10:48:23.205Z,50.43
2018-07-28T10:51:15.782Z,50.32
2018-07-28T10:54:08.285Z,50.54
2018-07-28T10:57:00.824Z,51.15
2018-07-28T10:59:54.195Z,51.13
2018-07-28T11:02:46.619Z,50.75
2018-07-28T11:05:39.395Z,50.65
2018-07-28T11:08:31.833Z,50.46
2018-07-28T11:11:24.315Z,50.59
2018-07-28T11:14:16.897Z,50.41
2018-07-28T11:17:09.470Z,50.24
2018-07-28T11:20:05.094Z,50.55
2018-07-28T11:22:57.546Z,50.48
2018-07-28T11:25:50.166Z,50.26
2018-07-28T11:28:42.597Z,50.16
2018-07-28T11:31:46.459Z,50.68
2018-07-28T11:34:50.362Z,50.65
2018-07-28T11:38:03.370Z,50.61
2018-07-28T11:41:07.416Z,50.59
2018-07-28T11:44:11.254Z,50.45
2018-07-28T11:47:03.832Z,50.78
2018-07-28T11:49:56.350Z,50.70
2018-07-28T11:52:48.784Z,50.83
2018-07-28T11:55:41.347Z,51.33
2018-07-28T11:58:34.402Z,52.40
2018-07-28T12:01:26.947Z,52.67
2018-07-28T12:04:19.464Z,52.00
2018-07-28T12:07:11.986Z,52.14
2018-07-28T12:10:06.676Z,51.91
2018-07-28T12:12:59.278Z,52.35
2018-07-28T12:15:51.775Z,52.25
2018-07-28T12:18:44.427Z,52.35
2018-07-28T12:21:37.039Z,52.02
2018-07-28T12:24:29.516Z,52.43
2018-07-28T12:27:22.178Z,52.15
2018-07-28T12:30:14.649Z,52.23
2018-07-28T12:33:07.262Z,52.00
2018-07-28T12:35:59.786Z,51.83
2018-07-28T12:38:52.340Z,52.20
2018-07-28T12:41:44.894Z,52.14
2018-07-28T12:44:37.324Z,52.24
2018-07-28T12:47:29.810Z,52.02
2018-07-28T12:50:22.333Z,51.80
2018-07-28T12:53:14.882Z,52.50
2018-07-28T12:56:07.456Z,52.34
2018-07-28T12:58:59.990Z,52.46
2018-07-28T13:05:03.919Z,52.05
2018-07-28T13:07:56.415Z,52.44
2018-07-28T13:10:49.017Z,52.39
2018-07-28T13:13:41.579Z,52.32
2018-07-28T13:16:34.821Z,52.36
2018-07-28T13:19:27.455Z,52.48
2018-07-28T13:22:20.018Z,52.65
2018-07-28T13:25:12.527Z,52.53
2018-07-28T13:28:05.060Z,52.61
2018-07-28T13:30:57.583Z,52.49
2018-07-28T13:33:50.066Z,52.68
2018-07-28T13:36:43.318Z,52.54
2018-07-28T13:39:37.159Z,52.86
2018-07-28T13:42:29.769Z,52.96
2018-07-28T13:45:22.271Z,53.01
2018-07-28T13:48:14.835Z,52.69
2018-07-28T13:51:07.356Z,52.80
2018-07-28T13:54:00.146Z,52.83
2018-07-28T13:56:52.733Z,52.52
2018-07-28T13:59:45.295Z,52.67
2018-07-28T14:02:42.702Z,51.98
2018-07-28T14:05:35.342Z,52.05
2018-07-28T14:08:27.939Z,52.30
2018-07-28T14:11:20.454Z,52.03
2018-07-28T14:14:13.184Z,52.42
2018-07-28T14:17:05.853Z,52.33
2018-07-28T14:19:58.555Z,52.04
2018-07-28T14:22:51.193Z,51.74
2018-07-28T14:25:43.682Z,48.56
2018-07-28T14:28:36.319Z,48.40
2018-07-28T14:31:28.955Z,48.56
2018-07-28T14:34:22.604Z,48.66
2018-07-28T14:37:15.077Z,48.96
2018-07-28T14:40:07.680Z,49.51
2018-07-28T14:43:00.218Z,48.63
2018-07-28T14:45:52.916Z,51.84
2018-07-28T14:48:45.545Z,56.56
2018-07-28T14:51:38.281Z,56.21
2018-07-28T14:54:30.918Z,59.21
2018-07-28T14:57:23.726Z,60.30
2018-07-28T15:00:16.219Z,61.43
2018-07-28T15:03:08.830Z,61.63
2018-07-28T15:08:12.978Z,62.30
2018-07-28T15:13:16.809Z,63.40
2018-07-28T15:18:20.606Z,60.66
2018-07-28T15:23:24.711Z,58.41
2018-07-28T15:28:28.724Z,60.16
2018-07-28T15:33:32.851Z,63.02
2018-07-28T15:38:36.799Z,64.35
2018-07-28T15:43:40.654Z,64.97
2018-07-28T15:48:45.086Z,65.68
2018-07-28T15:53:48.934Z,66.78
2018-07-28T15:58:53.183Z,67.59
2018-07-28T16:03:57.097Z,67.23
2018-07-28T16:09:01.191Z,66.43
2018-07-28T16:14:05.188Z,67.36
2018-07-28T16:19:09.067Z,65.26
2018-07-28T16:24:13.058Z,65.92
2018-07-28T16:29:16.868Z,65.19
2018-07-28T16:34:20.775Z,65.03
2018-07-28T16:39:24.463Z,65.75
2018-07-28T16:44:28.244Z,64.49
2018-07-28T16:49:32.117Z,58.64
2018-07-28T16:54:35.981Z,56.88
2018-07-28T16:59:39.873Z,56.43
2018-07-28T17:04:43.851Z,56.96
2018-07-28T17:09:47.706Z,57.49
2018-07-28T17:14:51.615Z,57.71
2018-07-28T17:19:55.431Z,57.31
2018-07-28T17:24:59.300Z,57.58
2018-07-28T17:30:03.749Z,57.59
2018-07-28T17:35:08.083Z,57.30
2018-07-28T17:40:11.863Z,57.06
2018-07-28T17:45:15.831Z,56.82
2018-07-28T17:50:20.422Z,56.52
2018-07-28T17:55:24.922Z,57.52
2018-07-28T18:00:28.810Z,57.31
2018-07-28T18:05:33.412Z,56.47
2018-07-28T18:10:37.422Z,57.88
2018-07-28T18:15:41.415Z,56.85
2018-07-28T18:20:45.227Z,57.70
2018-07-28T18:25:49.098Z,56.88
2018-07-28T18:30:53.837Z,57.66
2018-07-28T18:35:57.272Z,57.40
2018-07-28T18:41:02.067Z,58.48
2018-07-28T18:46:06.037Z,58.18
2018-07-28T18:51:09.902Z,58.37
2018-07-28T18:56:13.764Z,58.07
2018-07-28T19:01:17.786Z,58.08
2018-07-28T19:06:21.842Z,57.70
2018-07-28T19:11:26.493Z,56.92
2018-07-28T19:16:30.695Z,57.06
2018-07-28T19:21:34.523Z,56.93
2018-07-28T19:26:38.355Z,57.79
2018-07-28T19:31:42.458Z,58.30
2018-07-28T19:36:51.368Z,57.75
2018-07-28T19:42:00.247Z,56.97
2018-07-28T19:47:04.071Z,57.04
2018-07-28T19:52:07.949Z,57.27
2018-07-28T19:57:11.746Z,56.94
2018-07-28T20:02:15.582Z,56.47
2018-07-28T20:07:19.282Z,56.21
2018-07-28T20:12:23.036Z,56.36
2018-07-28T20:17:27.052Z,55.67
2018-07-28T20:22:30.843Z,56.04
2018-07-28T20:27:34.646Z,57.55
2018-07-28T20:32:38.484Z,57.68
2018-07-28T20:37:42.342Z,56.58
2018-07-28T20:42:46.207Z,55.88
2018-07-28T20:47:50.110Z,56.06
2018-07-28T20:52:53.910Z,55.83
2018-07-28T20:57:57.747Z,55.71
2018-07-28T21:03:01.563Z,54.12
2018-07-28T21:08:05.495Z,53.98
2018-07-28T21:13:09.311Z,53.92
2018-07-28T21:18:13.051Z,53.70
2018-07-28T21:23:17.468Z,54.04
2018-07-28T21:28:21.229Z,53.32
2018-07-28T21:33:25.056Z,53.47
2018-07-28T21:38:28.834Z,54.03
2018-07-28T21:43:32.627Z,54.10
2018-07-28T21:48:36.460Z,53.96
2018-07-28T21:53:40.297Z,54.44
2018-07-28T21:58:44.088Z,53.40
2018-07-28T22:03:47.916Z,52.30
2018-07-28T22:08:51.714Z,52.16
2018-07-28T22:13:55.558Z,53.17
2018-07-28T22:18:59.371Z,53.97
2018-07-28T22:24:03.216Z,53.52
2018-07-28T22:29:07.059Z,54.06
2018-07-28T22:34:10.894Z,54.19
2018-07-28T22:39:14.695Z,52.80
2018-07-28T22:44:18.598Z,50.98
2018-07-28T22:49:22.411Z,50.35
2018-07-28T22:54:26.434Z,50.28
2018-07-28T22:59:30.237Z,50.38
2018-07-28T23:04:34.033Z,50.12
2018-07-28T23:09:37.867Z,50.07
2018-07-28T23:14:41.678Z,49.80
2018-07-28T23:19:45.409Z,51.02
2018-07-28T23:24:49.266Z,50.73
2018-07-28T23:29:53.117Z,51.08
2018-07-28T23:34:56.905Z,51.30
2018-07-28T23:40:00.743Z,52.00
2018-07-28T23:45:06.438Z,51.76
2018-07-28T23:50:10.253Z,51.23
2018-07-28T23:55:14.095Z,49.74
